Magnolia, NJ (08049)

1:21 PM EDT on September 05, 2015 (GMT -0400)
Old Ashland | | Change Station
CLOSE
Current Station
Personal Weather Station
Location: Voorhees Township, NJ
Elevation: 75 ft
Nearby Weather Stations

Elev 75 ft 39.86 °N, 75.01 °W | Updated 1 minute ago

Clear
Clear
88.3 °F
Feels Like 89 °F
N
3.8
Wind Variable Wind from SSE

Today
High -- | Low -- °F
--% Chance of Precip.
Yesterday
High -- | Low -- °F
Precip. -- in
6:31 AM 7:25 PM
Waning Gibbous, 47% visible
Pressure 30.24 in
Visibility 10.0 miles
Clouds Few 3500 ft
Scattered Clouds 25000 ft
Heat Index 89 °F
Dew Point 63 °F
Humidity 43%
Rainfall 0.00 in
Snow Depth Not available.
UV 7 out of 12
Pollen 10.40 out of 12
Air Quality Not available.
Flu Activity Not available.
METAR KPHL 051654Z 09009KT 10SM FEW035 SCT250 29/15 A3023 RMK AO2 SLP238 T02940150
Pressure 30.24 in
Visibility 10.0 miles
Clouds Few 3500 ft
Scattered Clouds 25000 ft
Heat Index 89 °F
Dew Point 63 °F
Humidity 43%
Rainfall 0.00 in
Snow Depth Not available.
UV 7 out of 12
Pollen 10.40 out of 12
Air Quality Not available.
Flu Activity Not available.
METAR KPHL 051654Z 09009KT 10SM FEW035 SCT250 29/15 A3023 RMK AO2 SLP238 T02940150

10-Day Weather Forecast

×

Almanac

Astronomy

Sep. 05, 2015 Rise Set
Actual Time
Civil Twilight
Nautical Twilight
Astronomical Twilight
Moon
Length of Visible Light
Length of Day
Tomorrow will be .
, % of the Moon is Illuminated

Today's Extremes

State Highs State Lows

Community

WunderPhotos

Upload Photos

1,852,506 photos uploaded!

WunderBlogs® & News

Nearby

Air Quality

  Air Quality AQ Index Pollutant
Not available.

Snow Depth

Station Depth Elevation

Earthquake Activity

City Distance Mag. Time & Date
Minimum magnitude displayed is 2.5.

Coastal Water Temperatures

Place Temperature

Stations

Nearby Weather Stations

Station Location Temp. Windchill Dew Point Humidity Wind Precip. Elev Updated Type